sensor_id;sensor_type;location;lat;lon;timestamp;pressure;altitude;pressure_sealevel;temperature;humidity
55733;BME280;41637;52.364;9.910;2023-03-21T00:01:52;100944.26;;;7.31;100.00
55733;BME280;41637;52.364;9.910;2023-03-21T00:04:21;100948.06;;;7.35;100.00
55733;BME280;41637;52.364;9.910;2023-03-21T00:06:47;100942.54;;;7.38;100.00
55733;BME280;41637;52.364;9.910;2023-03-21T00:09:14;100938.21;;;7.40;100.00
55733;BME280;41637;52.364;9.910;2023-03-21T00:11:41;100942.12;;;7.41;100.00
55733;BME280;41637;52.364;9.910;2023-03-21T00:14:07;100933.23;;;7.40;100.00
55733;BME280;41637;52.364;9.910;2023-03-21T00:16:35;100931.41;;;7.41;100.00
55733;BME280;41637;52.364;9.910;2023-03-21T00:19:02;100928.15;;;7.40;100.00
55733;BME280;41637;52.364;9.910;2023-03-21T00:21:32;100931.05;;;7.39;100.00
55733;BME280;41637;52.364;9.910;2023-03-21T00:24:19;100928.80;;;7.39;100.00
55733;BME280;41637;52.364;9.910;2023-03-21T00:26:46;100925.05;;;7.37;100.00
55733;BME280;41637;52.364;9.910;2023-03-21T00:29:12;100926.21;;;7.38;100.00
55733;BME280;41637;52.364;9.910;2023-03-21T00:31:39;100921.52;;;7.35;100.00
55733;BME280;41637;52.364;9.910;2023-03-21T00:34:06;100921.91;;;7.35;100.00
55733;BME280;41637;52.364;9.910;2023-03-21T00:36:33;100919.08;;;7.33;100.00
55733;BME280;41637;52.364;9.910;2023-03-21T00:39:00;100915.68;;;7.33;100.00
55733;BME280;41637;52.364;9.910;2023-03-21T00:41:27;100914.05;;;7.34;100.00
55733;BME280;41637;52.364;9.910;2023-03-21T00:44:08;100914.88;;;7.35;100.00
55733;BME280;41637;52.364;9.910;2023-03-21T00:46:35;100915.77;;;7.37;100.00
55733;BME280;41637;52.364;9.910;2023-03-21T00:49:17;100913.35;;;7.38;100.00
55733;BME280;41637;52.364;9.910;2023-03-21T00:51:46;100909.45;;;7.38;100.00
55733;BME280;41637;52.364;9.910;2023-03-21T00:54:16;100910.06;;;7.37;100.00
55733;BME280;41637;52.364;9.910;2023-03-21T00:56:43;100903.77;;;7.39;100.00
55733;BME280;41637;52.364;9.910;2023-03-21T00:59:10;100905.52;;;7.41;100.00
55733;BME280;41637;52.364;9.910;2023-03-21T01:01:37;100902.81;;;7.42;100.00
55733;BME280;41637;52.364;9.910;2023-03-21T01:04:04;100898.83;;;7.41;100.00
55733;BME280;41637;52.364;9.910;2023-03-21T01:06:37;100896.86;;;7.43;100.00
55733;BME280;41637;52.364;9.910;2023-03-21T01:11:39;100894.36;;;7.43;100.00
55733;BME280;41637;52.364;9.910;2023-03-21T01:14:05;100892.67;;;7.43;100.00
55733;BME280;41637;52.364;9.910;2023-03-21T01:16:48;100891.52;;;7.44;100.00
55733;BME280;41637;52.364;9.910;2023-03-21T01:19:16;100891.35;;;7.43;100.00
55733;BME280;41637;52.364;9.910;2023-03-21T01:21:53;100893.21;;;7.44;100.00
55733;BME280;41637;52.364;9.910;2023-03-21T01:24:20;100887.41;;;7.44;100.00
55733;BME280;41637;52.364;9.910;2023-03-21T01:26:47;100889.11;;;7.43;100.00
55733;BME280;41637;52.364;9.910;2023-03-21T01:29:14;100884.07;;;7.43;100.00
55733;BME280;41637;52.364;9.910;2023-03-21T01:31:41;100882.42;;;7.43;100.00
55733;BME280;41637;52.364;9.910;2023-03-21T01:34:08;100882.48;;;7.42;100.00
55733;BME280;41637;52.364;9.910;2023-03-21T01:36:34;100883.94;;;7.42;100.00
55733;BME280;41637;52.364;9.910;2023-03-21T01:39:02;100885.41;;;7.43;100.00
55733;BME280;41637;52.364;9.910;2023-03-21T01:41:32;100880.20;;;7.42;100.00
55733;BME280;41637;52.364;9.910;2023-03-21T01:44:13;100880.80;;;7.44;100.00
55733;BME280;41637;52.364;9.910;2023-03-21T01:46:45;100881.48;;;7.42;100.00
55733;BME280;41637;52.364;9.910;2023-03-21T01:49:34;100876.95;;;7.42;100.00
55733;BME280;41637;52.364;9.910;2023-03-21T01:52:08;100875.32;;;7.42;100.00
55733;BME280;41637;52.364;9.910;2023-03-21T01:54:45;100876.21;;;7.42;100.00
55733;BME280;41637;52.364;9.910;2023-03-21T01:57:18;100871.23;;;7.41;100.00
55733;BME280;41637;52.364;9.910;2023-03-21T01:59:49;100870.92;;;7.42;100.00
55733;BME280;41637;52.364;9.910;2023-03-21T02:02:24;100865.77;;;7.41;100.00
55733;BME280;41637;52.364;9.910;2023-03-21T02:04:52;100867.73;;;7.41;100.00
55733;BME280;41637;52.364;9.910;2023-03-21T02:07:30;100866.58;;;7.42;100.00
55733;BME280;41637;52.364;9.910;2023-03-21T02:10:04;100867.94;;;7.42;100.00
55733;BME280;41637;52.364;9.910;2023-03-21T02:12:33;100862.74;;;7.43;100.00
55733;BME280;41637;52.364;9.910;2023-03-21T02:15:00;100859.23;;;7.44;100.00
55733;BME280;41637;52.364;9.910;2023-03-21T02:17:50;100857.59;;;7.45;100.00
55733;BME280;41637;52.364;9.910;2023-03-21T02:20:46;100853.52;;;7.45;100.00
55733;BME280;41637;52.364;9.910;2023-03-21T02:26:36;100845.38;;;7.44;100.00
55733;BME280;41637;52.364;9.910;2023-03-21T02:29:18;100843.45;;;7.44;100.00
55733;BME280;41637;52.364;9.910;2023-03-21T02:37:28;100834.37;;;7.45;100.00
55733;BME280;41637;52.364;9.910;2023-03-21T02:43:14;100832.27;;;7.47;100.00
55733;BME280;41637;52.364;9.910;2023-03-21T02:46:15;100832.77;;;7.49;100.00
55733;BME280;41637;52.364;9.910;2023-03-21T02:48:56;100831.10;;;7.50;100.00
55733;BME280;41637;52.364;9.910;2023-03-21T02:51:24;100834.84;;;7.51;100.00
55733;BME280;41637;52.364;9.910;2023-03-21T02:53:57;100830.23;;;7.53;100.00
55733;BME280;41637;52.364;9.910;2023-03-21T02:56:48;100823.45;;;7.58;100.00
55733;BME280;41637;52.364;9.910;2023-03-21T02:59:17;100822.13;;;7.60;100.00
55733;BME280;41637;52.364;9.910;2023-03-21T03:01:45;100822.32;;;7.64;100.00
55733;BME280;41637;52.364;9.910;2023-03-21T03:04:20;100822.50;;;7.65;100.00
55733;BME280;41637;52.364;9.910;2023-03-21T03:07:02;100822.79;;;7.68;100.00
55733;BME280;41637;52.364;9.910;2023-03-21T03:09:46;100821.55;;;7.69;100.00
55733;BME280;41637;52.364;9.910;2023-03-21T03:12:44;100823.41;;;7.70;100.00
55733;BME280;41637;52.364;9.910;2023-03-21T03:15:31;100819.70;;;7.72;100.00
55733;BME280;41637;52.364;9.910;2023-03-21T03:18:50;100820.79;;;7.74;100.00
55733;BME280;41637;52.364;9.910;2023-03-21T03:21:41;100818.34;;;7.75;100.00
55733;BME280;41637;52.364;9.910;2023-03-21T03:24:19;100817.30;;;7.77;100.00
55733;BME280;41637;52.364;9.910;2023-03-21T03:27:12;100812.80;;;7.78;100.00
55733;BME280;41637;52.364;9.910;2023-03-21T03:29:43;100811.73;;;7.80;100.00
55733;BME280;41637;52.364;9.910;2023-03-21T03:32:17;100806.54;;;7.81;100.00
55733;BME280;41637;52.364;9.910;2023-03-21T03:34:50;100809.92;;;7.82;100.00
55733;BME280;41637;52.364;9.910;2023-03-21T03:37:20;100809.76;;;7.86;100.00
55733;BME280;41637;52.364;9.910;2023-03-21T03:39:57;100809.73;;;7.88;100.00
55733;BME280;41637;52.364;9.910;2023-03-21T03:42:29;100806.80;;;7.89;100.00
55733;BME280;41637;52.364;9.910;2023-03-21T03:44:57;100806.37;;;7.89;100.00
55733;BME280;41637;52.364;9.910;2023-03-21T03:50:01;100801.66;;;7.92;100.00
55733;BME280;41637;52.364;9.910;2023-03-21T03:52:39;100806.40;;;7.94;100.00
55733;BME280;41637;52.364;9.910;2023-03-21T03:55:22;100806.78;;;7.96;100.00
55733;BME280;41637;52.364;9.910;2023-03-21T03:57:52;100804.60;;;7.96;100.00
55733;BME280;41637;52.364;9.910;2023-03-21T04:00:19;100804.88;;;7.96;100.00
55733;BME280;41637;52.364;9.910;2023-03-21T04:02:47;100801.83;;;7.96;100.00
55733;BME280;41637;52.364;9.910;2023-03-21T04:05:13;100802.84;;;7.96;100.00
55733;BME280;41637;52.364;9.910;2023-03-21T04:07:40;100802.16;;;7.96;100.00
55733;BME280;41637;52.364;9.910;2023-03-21T04:10:07;100803.30;;;7.97;100.00
55733;BME280;41637;52.364;9.910;2023-03-21T04:12:34;100798.80;;;7.98;100.00
55733;BME280;41637;52.364;9.910;2023-03-21T04:15:01;100801.02;;;7.99;100.00
55733;BME280;41637;52.364;9.910;2023-03-21T04:17:36;100802.53;;;7.98;100.00
55733;BME280;41637;52.364;9.910;2023-03-21T04:20:05;100799.40;;;7.98;100.00
55733;BME280;41637;52.364;9.910;2023-03-21T04:22:44;100800.25;;;7.98;100.00
55733;BME280;41637;52.364;9.910;2023-03-21T04:25:11;100798.31;;;7.98;100.00
55733;BME280;41637;52.364;9.910;2023-03-21T04:27:49;100800.38;;;7.96;100.00
55733;BME280;41637;52.364;9.910;2023-03-21T04:30:17;100801.20;;;7.95;100.00
55733;BME280;41637;52.364;9.910;2023-03-21T04:32:50;100798.08;;;7.94;100.00
55733;BME280;41637;52.364;9.910;2023-03-21T04:35:19;100798.94;;;7.93;100.00
55733;BME280;41637;52.364;9.910;2023-03-21T04:37:46;100795.48;;;7.94;100.00
55733;BME280;41637;52.364;9.910;2023-03-21T04:40:13;100795.08;;;7.93;100.00
55733;BME280;41637;52.364;9.910;2023-03-21T04:42:43;100793.89;;;7.93;100.00
55733;BME280;41637;52.364;9.910;2023-03-21T04:45:10;100793.68;;;7.93;100.00
55733;BME280;41637;52.364;9.910;2023-03-21T04:47:37;100791.67;;;7.92;100.00
55733;BME280;41637;52.364;9.910;2023-03-21T04:50:04;100787.63;;;7.92;100.00
55733;BME280;41637;52.364;9.910;2023-03-21T04:52:31;100783.91;;;7.92;100.00
55733;BME280;41637;52.364;9.910;2023-03-21T04:54:58;100783.25;;;7.92;100.00
55733;BME280;41637;52.364;9.910;2023-03-21T04:57:25;100787.02;;;7.93;100.00
55733;BME280;41637;52.364;9.910;2023-03-21T04:59:52;100790.05;;;7.92;100.00
55733;BME280;41637;52.364;9.910;2023-03-21T05:02:19;100791.58;;;7.93;100.00
55733;BME280;41637;52.364;9.910;2023-03-21T05:04:45;100791.23;;;7.93;100.00
55733;BME280;41637;52.364;9.910;2023-03-21T05:07:13;100789.44;;;7.93;100.00
55733;BME280;41637;52.364;9.910;2023-03-21T05:09:39;100789.80;;;7.93;100.00
55733;BME280;41637;52.364;9.910;2023-03-21T05:12:06;100785.94;;;7.95;100.00
55733;BME280;41637;52.364;9.910;2023-03-21T05:14:32;100785.58;;;7.95;100.00
55733;BME280;41637;52.364;9.910;2023-03-21T05:17:00;100787.10;;;7.95;100.00
55733;BME280;41637;52.364;9.910;2023-03-21T05:19:31;100787.30;;;7.97;100.00
55733;BME280;41637;52.364;9.910;2023-03-21T05:22:09;100788.10;;;7.96;100.00
55733;BME280;41637;52.364;9.910;2023-03-21T05:24:36;100788.15;;;7.95;100.00
55733;BME280;41637;52.364;9.910;2023-03-21T05:27:04;100787.29;;;7.95;100.00
55733;BME280;41637;52.364;9.910;2023-03-21T05:29:32;100787.80;;;7.95;100.00
55733;BME280;41637;52.364;9.910;2023-03-21T05:31:59;100783.38;;;7.97;100.00
55733;BME280;41637;52.364;9.910;2023-03-21T05:34:27;100781.48;;;7.99;100.00
55733;BME280;41637;52.364;9.910;2023-03-21T05:36:54;100781.34;;;8.00;100.00
55733;BME280;41637;52.364;9.910;2023-03-21T05:39:22;100783.30;;;8.02;100.00
55733;BME280;41637;52.364;9.910;2023-03-21T05:41:48;100784.73;;;8.05;100.00
55733;BME280;41637;52.364;9.910;2023-03-21T05:44:15;100783.02;;;8.08;100.00
55733;BME280;41637;52.364;9.910;2023-03-21T05:46:43;100780.77;;;8.11;100.00
55733;BME280;41637;52.364;9.910;2023-03-21T05:49:10;100781.23;;;8.15;100.00
55733;BME280;41637;52.364;9.910;2023-03-21T05:51:37;100783.40;;;8.18;100.00
55733;BME280;41637;52.364;9.910;2023-03-21T05:54:04;100779.45;;;8.21;100.00
55733;BME280;41637;52.364;9.910;2023-03-21T05:56:32;100782.54;;;8.25;100.00
55733;BME280;41637;52.364;9.910;2023-03-21T05:58:58;100787.14;;;8.26;100.00
55733;BME280;41637;52.364;9.910;2023-03-21T06:01:25;100785.22;;;8.29;100.00
55733;BME280;41637;52.364;9.910;2023-03-21T06:03:52;100783.34;;;8.34;100.00
55733;BME280;41637;52.364;9.910;2023-03-21T06:06:19;100783.42;;;8.36;100.00
55733;BME280;41637;52.364;9.910;2023-03-21T06:08:45;100781.75;;;8.39;100.00
55733;BME280;41637;52.364;9.910;2023-03-21T06:11:27;100782.81;;;8.41;100.00
55733;BME280;41637;52.364;9.910;2023-03-21T06:13:54;100781.84;;;8.44;100.00
55733;BME280;41637;52.364;9.910;2023-03-21T06:16:21;100783.27;;;8.47;100.00
55733;BME280;41637;52.364;9.910;2023-03-21T06:18:48;100779.97;;;8.48;100.00
55733;BME280;41637;52.364;9.910;2023-03-21T06:21:15;100784.64;;;8.50;100.00
55733;BME280;41637;52.364;9.910;2023-03-21T06:23:42;100785.52;;;8.54;100.00
55733;BME280;41637;52.364;9.910;2023-03-21T06:26:08;100784.90;;;8.57;100.00
55733;BME280;41637;52.364;9.910;2023-03-21T06:28:35;100787.05;;;8.58;100.00
55733;BME280;41637;52.364;9.910;2023-03-21T06:31:02;100789.20;;;8.61;100.00
55733;BME280;41637;52.364;9.910;2023-03-21T06:33:29;100787.20;;;8.65;100.00
55733;BME280;41637;52.364;9.910;2023-03-21T06:35:58;100787.02;;;8.69;100.00
55733;BME280;41637;52.364;9.910;2023-03-21T06:38:25;100789.80;;;8.71;100.00
55733;BME280;41637;52.364;9.910;2023-03-21T06:40:52;100791.55;;;8.71;100.00
55733;BME280;41637;52.364;9.910;2023-03-21T06:43:19;100793.17;;;8.72;100.00
55733;BME280;41637;52.364;9.910;2023-03-21T06:45:46;100790.02;;;8.74;100.00
55733;BME280;41637;52.364;9.910;2023-03-21T06:48:12;100790.14;;;8.76;100.00
55733;BME280;41637;52.364;9.910;2023-03-21T06:50:39;100789.63;;;8.74;100.00
55733;BME280;41637;52.364;9.910;2023-03-21T06:53:06;100790.47;;;8.74;100.00
55733;BME280;41637;52.364;9.910;2023-03-21T06:55:33;100791.66;;;8.75;100.00
55733;BME280;41637;52.364;9.910;2023-03-21T06:58:02;100791.61;;;8.77;100.00
55733;BME280;41637;52.364;9.910;2023-03-21T07:00:28;100793.09;;;8.78;100.00
55733;BME280;41637;52.364;9.910;2023-03-21T07:02:55;100794.16;;;8.80;99.98
55733;BME280;41637;52.364;9.910;2023-03-21T07:05:22;100794.79;;;8.80;99.98
55733;BME280;41637;52.364;9.910;2023-03-21T07:07:49;100793.34;;;8.82;99.91
55733;BME280;41637;52.364;9.910;2023-03-21T07:10:16;100795.08;;;8.86;99.90
55733;BME280;41637;52.364;9.910;2023-03-21T07:12:43;100799.48;;;8.89;99.56
55733;BME280;41637;52.364;9.910;2023-03-21T07:15:10;100798.27;;;8.90;99.28
55733;BME280;41637;52.364;9.910;2023-03-21T07:17:37;100799.48;;;8.92;99.02
55733;BME280;41637;52.364;9.910;2023-03-21T07:20:04;100796.15;;;8.96;98.90
55733;BME280;41637;52.364;9.910;2023-03-21T07:22:34;100799.14;;;8.99;98.76
55733;BME280;41637;52.364;9.910;2023-03-21T07:25:01;100799.15;;;9.04;98.62
55733;BME280;41637;52.364;9.910;2023-03-21T07:27:31;100798.63;;;9.08;98.24
55733;BME280;41637;52.364;9.910;2023-03-21T07:29:57;100800.36;;;9.11;98.21
55733;BME280;41637;52.364;9.910;2023-03-21T07:32:24;100798.77;;;9.14;97.62
55733;BME280;41637;52.364;9.910;2023-03-21T07:34:55;100795.52;;;9.17;97.08
55733;BME280;41637;52.364;9.910;2023-03-21T07:37:22;100794.64;;;9.20;96.93
55733;BME280;41637;52.364;9.910;2023-03-21T07:39:49;100791.46;;;9.23;96.67
55733;BME280;41637;52.364;9.910;2023-03-21T07:42:17;100786.81;;;9.27;96.33
55733;BME280;41637;52.364;9.910;2023-03-21T07:44:44;100779.51;;;9.33;96.31
55733;BME280;41637;52.364;9.910;2023-03-21T07:47:11;100777.79;;;9.39;95.60
55733;BME280;41637;52.364;9.910;2023-03-21T07:49:37;100779.08;;;9.49;95.62
55733;BME280;41637;52.364;9.910;2023-03-21T07:52:04;100773.77;;;9.58;95.06
55733;BME280;41637;52.364;9.910;2023-03-21T07:54:33;100776.12;;;9.68;94.01
55733;BME280;41637;52.364;9.910;2023-03-21T07:56:59;100774.80;;;9.80;93.63
55733;BME280;41637;52.364;9.910;2023-03-21T07:59:26;100770.34;;;9.90;93.16
55733;BME280;41637;52.364;9.910;2023-03-21T08:01:53;100771.79;;;10.04;92.84
55733;BME280;41637;52.364;9.910;2023-03-21T08:04:19;100775.56;;;10.16;91.98
55733;BME280;41637;52.364;9.910;2023-03-21T08:06:46;100777.47;;;10.27;90.64
55733;BME280;41637;52.364;9.910;2023-03-21T08:09:13;100774.01;;;10.39;90.28
55733;BME280;41637;52.364;9.910;2023-03-21T08:11:40;100773.53;;;10.49;89.14
55733;BME280;41637;52.364;9.910;2023-03-21T08:14:07;100774.36;;;10.61;88.73
55733;BME280;41637;52.364;9.910;2023-03-21T08:16:33;100772.05;;;10.73;87.97
55733;BME280;41637;52.364;9.910;2023-03-21T08:19:00;100775.14;;;10.85;87.33
55733;BME280;41637;52.364;9.910;2023-03-21T08:21:27;100775.24;;;10.84;85.28
55733;BME280;41637;52.364;9.910;2023-03-21T08:23:54;100776.77;;;10.85;85.56
55733;BME280;41637;52.364;9.910;2023-03-21T08:26:21;100773.73;;;10.85;85.56
55733;BME280;41637;52.364;9.910;2023-03-21T08:28:51;100775.40;;;10.86;85.16
55733;BME280;41637;52.364;9.910;2023-03-21T08:31:18;100775.23;;;10.88;85.23
55733;BME280;41637;52.364;9.910;2023-03-21T08:33:47;100779.06;;;10.96;85.69
55733;BME280;41637;52.364;9.910;2023-03-21T08:36:22;100781.30;;;11.04;85.11
55733;BME280;41637;52.364;9.910;2023-03-21T08:38:49;100778.77;;;11.09;84.57
55733;BME280;41637;52.364;9.910;2023-03-21T08:41:19;100780.80;;;11.10;83.81
55733;BME280;41637;52.364;9.910;2023-03-21T08:43:47;100780.13;;;11.10;83.49
55733;BME280;41637;52.364;9.910;2023-03-21T08:46:15;100777.85;;;11.12;83.80
55733;BME280;41637;52.364;9.910;2023-03-21T08:48:42;100781.75;;;11.20;83.83
55733;BME280;41637;52.364;9.910;2023-03-21T08:51:08;100776.65;;;11.23;83.28
55733;BME280;41637;52.364;9.910;2023-03-21T08:53:35;100776.48;;;11.24;82.92
55733;BME280;41637;52.364;9.910;2023-03-21T08:56:02;100780.68;;;11.26;82.25
55733;BME280;41637;52.364;9.910;2023-03-21T08:58:28;100783.59;;;11.24;82.20
55733;BME280;41637;52.364;9.910;2023-03-21T09:00:55;100789.71;;;11.22;81.97
55733;BME280;41637;52.364;9.910;2023-03-21T09:03:22;100788.27;;;11.19;82.38
55733;BME280;41637;52.364;9.910;2023-03-21T09:05:52;100782.04;;;11.09;82.06
55733;BME280;41637;52.364;9.910;2023-03-21T09:08:19;100774.33;;;11.09;82.62
55733;BME280;41637;52.364;9.910;2023-03-21T09:10:52;100773.64;;;11.12;82.89
55733;BME280;41637;52.364;9.910;2023-03-21T09:13:21;100772.58;;;11.12;83.18
55733;BME280;41637;52.364;9.910;2023-03-21T09:15:48;100771.63;;;11.10;83.19
55733;BME280;41637;52.364;9.910;2023-03-21T09:18:15;100767.81;;;11.12;83.49
55733;BME280;41637;52.364;9.910;2023-03-21T09:20:45;100768.32;;;11.14;83.75
55733;BME280;41637;52.364;9.910;2023-03-21T09:23:13;100770.81;;;11.18;83.24
55733;BME280;41637;52.364;9.910;2023-03-21T09:25:40;100769.29;;;11.19;82.35
55733;BME280;41637;52.364;9.910;2023-03-21T09:28:07;100769.42;;;11.27;82.77
55733;BME280;41637;52.364;9.910;2023-03-21T09:30:35;100768.55;;;11.33;82.36
55733;BME280;41637;52.364;9.910;2023-03-21T09:33:03;100765.98;;;11.39;81.61
55733;BME280;41637;52.364;9.910;2023-03-21T09:35:34;100771.09;;;11.51;82.08
55733;BME280;41637;52.364;9.910;2023-03-21T09:38:01;100772.02;;;11.55;80.98
55733;BME280;41637;52.364;9.910;2023-03-21T09:46:02;100766.33;;;11.78;81.24
55733;BME280;41637;52.364;9.910;2023-03-21T09:48:55;100765.67;;;11.95;80.41
55733;BME280;41637;52.364;9.910;2023-03-21T09:51:28;100767.82;;;12.02;79.13
55733;BME280;41637;52.364;9.910;2023-03-21T09:53:58;100762.46;;;12.08;78.69
55733;BME280;41637;52.364;9.910;2023-03-21T09:56:29;100767.25;;;12.14;77.78
55733;BME280;41637;52.364;9.910;2023-03-21T09:58:57;100769.56;;;12.21;77.21
55733;BME280;41637;52.364;9.910;2023-03-21T10:01:28;100765.61;;;12.32;76.94
55733;BME280;41637;52.364;9.910;2023-03-21T10:04:00;100769.43;;;12.49;76.43
55733;BME280;41637;52.364;9.910;2023-03-21T10:06:29;100766.02;;;12.68;76.32
55733;BME280;41637;52.364;9.910;2023-03-21T10:08:59;100761.02;;;12.86;75.75
55733;BME280;41637;52.364;9.910;2023-03-21T10:11:31;100760.58;;;12.91;74.44
55733;BME280;41637;52.364;9.910;2023-03-21T10:14:06;100758.79;;;12.93;74.13
55733;BME280;41637;52.364;9.910;2023-03-21T10:16:43;100759.05;;;12.98;73.93
55733;BME280;41637;52.364;9.910;2023-03-21T10:19:14;100758.08;;;12.94;73.77
55733;BME280;41637;52.364;9.910;2023-03-21T10:21:46;100755.00;;;12.90;73.84
55733;BME280;41637;52.364;9.910;2023-03-21T10:24:27;100748.98;;;12.88;74.45
55733;BME280;41637;52.364;9.910;2023-03-21T10:26:55;100749.67;;;12.83;74.60
55733;BME280;41637;52.364;9.910;2023-03-21T10:29:30;100747.55;;;12.76;74.77
55733;BME280;41637;52.364;9.910;2023-03-21T10:31:57;100748.23;;;12.65;74.60
55733;BME280;41637;52.364;9.910;2023-03-21T10:34:30;100749.05;;;12.53;74.97
55733;BME280;41637;52.364;9.910;2023-03-21T10:36:59;100753.44;;;12.48;75.52
55733;BME280;41637;52.364;9.910;2023-03-21T10:39:37;100754.20;;;12.46;75.90
55733;BME280;41637;52.364;9.910;2023-03-21T10:42:06;100752.15;;;12.42;76.14
55733;BME280;41637;52.364;9.910;2023-03-21T10:44:38;100749.94;;;12.39;76.28
55733;BME280;41637;52.364;9.910;2023-03-21T10:47:07;100752.29;;;12.37;76.45
55733;BME280;41637;52.364;9.910;2023-03-21T10:49:36;100750.71;;;12.35;77.45
55733;BME280;41637;52.364;9.910;2023-03-21T10:52:26;100752.04;;;12.33;78.29
55733;BME280;41637;52.364;9.910;2023-03-21T10:55:19;100749.89;;;12.32;78.93
55733;BME280;41637;52.364;9.910;2023-03-21T10:57:52;100746.17;;;12.26;79.80
55733;BME280;41637;52.364;9.910;2023-03-21T11:00:22;100747.04;;;12.23;80.12
55733;BME280;41637;52.364;9.910;2023-03-21T11:02:51;100741.35;;;12.17;80.93
55733;BME280;41637;52.364;9.910;2023-03-21T11:08:02;100732.60;;;12.06;81.14
55733;BME280;41637;52.364;9.910;2023-03-21T11:10:35;100730.81;;;12.12;82.32
55733;BME280;41637;52.364;9.910;2023-03-21T11:13:16;100730.70;;;12.19;82.42
55733;BME280;41637;52.364;9.910;2023-03-21T11:18:17;100730.79;;;12.27;81.98
55733;BME280;41637;52.364;9.910;2023-03-21T11:20:54;100727.61;;;12.27;82.25
55733;BME280;41637;52.364;9.910;2023-03-21T11:23:25;100725.49;;;12.28;82.77
55733;BME280;41637;52.364;9.910;2023-03-21T11:25:52;100727.30;;;12.26;82.81
55733;BME280;41637;52.364;9.910;2023-03-21T11:28:22;100727.27;;;12.23;83.18
55733;BME280;41637;52.364;9.910;2023-03-21T11:30:55;100728.48;;;12.29;83.53
55733;BME280;41637;52.364;9.910;2023-03-21T11:33:27;100724.69;;;12.33;83.26
55733;BME280;41637;52.364;9.910;2023-03-21T11:38:35;100720.41;;;12.33;83.47
55733;BME280;41637;52.364;9.910;2023-03-21T11:41:04;100723.17;;;12.29;84.71
55733;BME280;41637;52.364;9.910;2023-03-21T11:43:35;100720.86;;;12.21;84.52
55733;BME280;41637;52.364;9.910;2023-03-21T11:46:12;100717.59;;;12.05;84.17
55733;BME280;41637;52.364;9.910;2023-03-21T11:48:42;100709.46;;;12.00;85.23
55733;BME280;41637;52.364;9.910;2023-03-21T11:51:34;100713.20;;;11.96;85.56
55733;BME280;41637;52.364;9.910;2023-03-21T11:54:21;100709.76;;;11.88;85.70
55733;BME280;41637;52.364;9.910;2023-03-21T11:57:10;100703.75;;;11.77;86.46
55733;BME280;41637;52.364;9.910;2023-03-21T11:59:58;100701.82;;;11.68;86.80
55733;BME280;41637;52.364;9.910;2023-03-21T12:02:50;100701.85;;;11.62;86.86
55733;BME280;41637;52.364;9.910;2023-03-21T12:05:28;100700.75;;;11.57;87.42
55733;BME280;41637;52.364;9.910;2023-03-21T12:08:18;100695.20;;;11.49;87.50
55733;BME280;41637;52.364;9.910;2023-03-21T12:10:58;100693.98;;;11.47;88.92
55733;BME280;41637;52.364;9.910;2023-03-21T12:13:57;100691.03;;;11.43;89.33
55733;BME280;41637;52.364;9.910;2023-03-21T12:21:52;100685.61;;;11.49;90.41
55733;BME280;41637;52.364;9.910;2023-03-21T12:24:26;100677.17;;;11.51;90.84
55733;BME280;41637;52.364;9.910;2023-03-21T12:27:18;100679.45;;;11.49;90.80
55733;BME280;41637;52.364;9.910;2023-03-21T12:30:12;100673.20;;;11.51;91.30
55733;BME280;41637;52.364;9.910;2023-03-21T12:33:00;100673.14;;;11.53;91.78
55733;BME280;41637;52.364;9.910;2023-03-21T12:35:44;100670.17;;;11.54;91.63
55733;BME280;41637;52.364;9.910;2023-03-21T12:38:38;100670.69;;;11.55;91.83
55733;BME280;41637;52.364;9.910;2023-03-21T12:41:22;100666.00;;;11.56;91.46
55733;BME280;41637;52.364;9.910;2023-03-21T12:44:02;100665.51;;;11.62;91.58
55733;BME280;41637;52.364;9.910;2023-03-21T12:49:28;100664.52;;;11.57;91.47
55733;BME280;41637;52.364;9.910;2023-03-21T12:52:02;100667.23;;;11.55;91.77
55733;BME280;41637;52.364;9.910;2023-03-21T12:54:39;100666.52;;;11.55;92.35
55733;BME280;41637;52.364;9.910;2023-03-21T12:57:13;100662.55;;;11.60;92.99
55733;BME280;41637;52.364;9.910;2023-03-21T13:03:03;100652.81;;;11.66;93.19
55733;BME280;41637;52.364;9.910;2023-03-21T13:05:34;100650.98;;;11.65;93.28
55733;BME280;41637;52.364;9.910;2023-03-21T13:08:08;100645.92;;;11.64;93.30
55733;BME280;41637;52.364;9.910;2023-03-21T13:10:38;100642.46;;;11.65;93.64
55733;BME280;41637;52.364;9.910;2023-03-21T13:16:02;100640.66;;;11.56;92.88
55733;BME280;41637;52.364;9.910;2023-03-21T13:18:37;100632.65;;;11.54;93.19
55733;BME280;41637;52.364;9.910;2023-03-21T13:26:48;100621.16;;;11.62;93.98
55733;BME280;41637;52.364;9.910;2023-03-21T13:29:31;100621.39;;;11.62;94.27
55733;BME280;41637;52.364;9.910;2023-03-21T13:32:08;100619.41;;;11.56;94.32
55733;BME280;41637;52.364;9.910;2023-03-21T13:34:37;100620.98;;;11.48;94.06
55733;BME280;41637;52.364;9.910;2023-03-21T13:37:13;100617.55;;;11.40;94.38
55733;BME280;41637;52.364;9.910;2023-03-21T13:39:45;100618.61;;;11.35;95.03
55733;BME280;41637;52.364;9.910;2023-03-21T13:42:24;100617.84;;;11.29;95.47
55733;BME280;41637;52.364;9.910;2023-03-21T13:44:58;100615.86;;;11.28;96.14
55733;BME280;41637;52.364;9.910;2023-03-21T13:47:37;100615.42;;;11.24;96.10
55733;BME280;41637;52.364;9.910;2023-03-21T13:55:35;100609.73;;;11.17;96.79
55733;BME280;41637;52.364;9.910;2023-03-21T13:58:33;100608.08;;;11.16;97.31
55733;BME280;41637;52.364;9.910;2023-03-21T14:01:32;100601.55;;;11.17;97.65
55733;BME280;41637;52.364;9.910;2023-03-21T14:06:39;100599.60;;;11.13;97.90
55733;BME280;41637;52.364;9.910;2023-03-21T14:09:14;100594.02;;;11.13;98.24
55733;BME280;41637;52.364;9.910;2023-03-21T14:11:43;100589.19;;;11.10;98.33
55733;BME280;41637;52.364;9.910;2023-03-21T14:14:12;100593.30;;;11.12;98.84